createdAt,value
2018-02-05T00:01:00.754Z,0.40
2018-02-05T00:03:29.948Z,0.30
2018-02-05T00:05:59.125Z,0.30
2018-02-05T00:08:27.491Z,0.30
2018-02-05T00:10:57.744Z,0.30
2018-02-05T00:13:26.895Z,0.30
2018-02-05T00:15:55.267Z,0.30
2018-02-05T00:18:23.637Z,0.30
2018-02-05T00:20:51.710Z,0.30
2018-02-05T00:23:20.065Z,0.30
2018-02-05T00:25:48.648Z,0.30
2018-02-05T00:28:17.449Z,0.20
2018-02-05T00:30:45.842Z,0.30
2018-02-05T00:33:14.222Z,0.20
2018-02-05T00:35:42.758Z,0.20
2018-02-05T00:38:11.342Z,0.20
2018-02-05T00:40:40.604Z,0.30
2018-02-05T00:43:09.075Z,0.20
2018-02-05T00:45:37.486Z,0.30
2018-02-05T00:48:06.046Z,0.30
2018-02-05T00:50:34.619Z,0.30
2018-02-05T00:53:03.424Z,0.30
2018-02-05T00:55:31.525Z,0.30
2018-02-05T00:57:59.975Z,0.30
2018-02-05T01:00:28.473Z,0.20
2018-02-05T01:02:57.632Z,0.20
2018-02-05T01:05:26.041Z,0.20
2018-02-05T01:07:54.507Z,0.20
2018-02-05T01:10:22.898Z,0.20
2018-02-05T01:12:51.328Z,0.20
2018-02-05T01:15:19.783Z,0.20
2018-02-05T01:17:48.184Z,0.20
2018-02-05T01:20:16.741Z,0.20
2018-02-05T01:22:45.225Z,0.20
2018-02-05T01:25:13.753Z,0.20
2018-02-05T01:27:42.276Z,0.20
2018-02-05T01:30:11.606Z,0.20
2018-02-05T01:32:41.676Z,0.20
2018-02-05T01:35:10.787Z,0.20
2018-02-05T01:37:39.922Z,0.20
2018-02-05T01:40:08.341Z,0.20
2018-02-05T01:42:36.715Z,0.20
2018-02-05T01:45:05.170Z,0.20
2018-02-05T01:47:33.654Z,0.20
2018-02-05T01:50:01.829Z,0.20
2018-02-05T01:52:30.206Z,0.20
2018-02-05T01:54:58.813Z,0.20
2018-02-05T01:57:27.334Z,0.30
2018-02-05T01:59:55.803Z,0.30
2018-02-05T02:02:24.933Z,0.30
2018-02-05T02:04:53.484Z,0.30
2018-02-05T02:07:21.918Z,0.30
2018-02-05T02:09:50.314Z,0.30
2018-02-05T02:12:18.880Z,0.40
2018-02-05T02:14:47.288Z,0.40
2018-02-05T02:17:16.595Z,0.40
2018-02-05T02:19:44.317Z,0.30
2018-02-05T02:22:12.505Z,0.40
2018-02-05T02:24:40.943Z,0.40
2018-02-05T02:27:09.325Z,0.40
2018-02-05T02:29:37.700Z,0.40
2018-02-05T02:32:06.264Z,0.40
2018-02-05T02:34:34.645Z,0.40
2018-02-05T02:37:03.280Z,0.30
2018-02-05T02:39:31.692Z,0.30
2018-02-05T02:42:00.851Z,0.30
2018-02-05T02:44:29.555Z,0.20
2018-02-05T02:46:58.061Z,0.20
2018-02-05T02:49:27.362Z,0.20
2018-02-05T02:51:55.876Z,0.20
2018-02-05T02:54:24.368Z,0.20
2018-02-05T02:56:52.941Z,0.10
2018-02-05T02:59:21.316Z,0.10
2018-02-05T03:01:49.994Z,0.10
2018-02-05T03:04:18.413Z,0.20
2018-02-05T03:06:46.794Z,0.20
2018-02-05T03:09:16.267Z,0.30
2018-02-05T03:11:44.631Z,0.20
2018-02-05T03:14:13.161Z,0.30
2018-02-05T03:16:41.700Z,0.40
2018-02-05T03:19:10.140Z,0.40
2018-02-05T03:21:39.395Z,0.40
2018-02-05T03:24:07.940Z,0.40
2018-02-05T03:26:36.445Z,0.50
2018-02-05T03:29:04.785Z,0.50
2018-02-05T03:31:33.941Z,0.40
2018-02-05T03:34:02.355Z,0.40
2018-02-05T03:36:30.731Z,0.40
2018-02-05T03:39:00.137Z,0.30
2018-02-05T03:41:29.399Z,0.40
2018-02-05T03:43:57.955Z,0.30
2018-02-05T03:46:26.357Z,0.40
2018-02-05T03:48:55.161Z,0.30
2018-02-05T03:51:23.575Z,0.40
2018-02-05T03:53:51.949Z,0.40
2018-02-05T03:56:20.440Z,0.40
2018-02-05T03:58:48.880Z,0.40
2018-02-05T04:01:18.176Z,0.40
2018-02-05T04:03:46.606Z,0.40
2018-02-05T04:06:14.989Z,0.40
2018-02-05T04:08:43.526Z,0.40
2018-02-05T04:11:12.819Z,0.40
2018-02-05T04:13:41.367Z,0.40
2018-02-05T04:16:09.778Z,0.40
2018-02-05T04:18:38.132Z,0.40
2018-02-05T04:21:06.555Z,0.40
2018-02-05T04:23:35.838Z,0.40
2018-02-05T04:26:04.015Z,0.40
2018-02-05T04:28:33.191Z,0.40
2018-02-05T04:31:01.543Z,0.40
2018-02-05T04:33:29.985Z,0.40
2018-02-05T04:35:58.352Z,0.40
2018-02-05T04:38:27.645Z,0.40
2018-02-05T04:40:56.953Z,0.40
2018-02-05T04:43:26.263Z,0.40
2018-02-05T04:45:55.386Z,0.40
2018-02-05T04:48:24.128Z,0.40
2018-02-05T04:50:53.394Z,0.30
2018-02-05T04:53:21.797Z,0.20
2018-02-05T04:55:50.149Z,0.20
2018-02-05T04:58:18.580Z,0.10
2018-02-05T05:00:47.680Z,0.00
2018-02-05T05:03:16.439Z,0.00
2018-02-05T05:05:45.063Z,0.00
2018-02-05T05:08:13.502Z,0.00
2018-02-05T05:10:42.813Z,-0.10
2018-02-05T05:13:11.968Z,-0.10
2018-02-05T05:15:40.710Z,-0.10
2018-02-05T05:18:10.010Z,-0.10
2018-02-05T05:20:38.535Z,-0.10
2018-02-05T05:23:06.917Z,-0.10
2018-02-05T05:25:35.623Z,-0.10
2018-02-05T05:28:04.911Z,-0.20
2018-02-05T05:30:33.351Z,-0.20
2018-02-05T05:33:01.711Z,-0.10
2018-02-05T05:35:30.400Z,-0.20
2018-02-05T05:37:59.528Z,-0.20
2018-02-05T05:40:28.057Z,-0.20
2018-02-05T05:42:57.202Z,-0.30
2018-02-05T05:45:25.641Z,-0.30
2018-02-05T05:47:53.682Z,-0.30
2018-02-05T05:50:22.072Z,-0.40
2018-02-05T05:52:50.625Z,-0.30
2018-02-05T05:55:19.159Z,-0.30
2018-02-05T05:57:48.926Z,-0.20
2018-02-05T06:00:17.123Z,-0.20
2018-02-05T06:02:45.506Z,-0.20
2018-02-05T06:05:13.856Z,-0.20
2018-02-05T06:07:42.372Z,-0.20
2018-02-05T06:10:11.498Z,-0.10
2018-02-05T06:12:39.650Z,-0.10
2018-02-05T06:15:08.082Z,-0.10
2018-02-05T06:17:36.430Z,-0.10
2018-02-05T06:20:04.917Z,0.00
2018-02-05T06:22:33.253Z,0.00
2018-02-05T06:25:02.400Z,0.00
2018-02-05T06:27:30.759Z,-0.10
2018-02-05T06:29:59.126Z,-0.10
2018-02-05T06:32:27.592Z,-0.10
2018-02-05T06:34:56.126Z,-0.10
2018-02-05T06:37:24.479Z,-0.10
2018-02-05T06:39:53.296Z,-0.10
2018-02-05T06:42:21.654Z,-0.10
2018-02-05T06:44:49.870Z,-0.10
2018-02-05T06:47:18.298Z,-0.10
2018-02-05T06:49:46.874Z,-0.10
2018-02-05T06:52:26.448Z,-0.10
2018-02-05T06:55:06.134Z,0.00
2018-02-05T06:57:35.427Z,0.00
2018-02-05T07:00:03.698Z,0.00
2018-02-05T07:02:32.826Z,0.10
2018-02-05T07:05:01.192Z,0.00
2018-02-05T07:07:29.560Z,0.00
2018-02-05T07:09:58.754Z,0.10
2018-02-05T07:12:27.890Z,0.10
2018-02-05T07:14:56.250Z,0.10
2018-02-05T07:17:24.839Z,0.10
2018-02-05T07:19:53.307Z,0.10
2018-02-05T07:22:21.646Z,0.20
2018-02-05T07:24:50.247Z,0.20
2018-02-05T07:27:19.713Z,0.30
2018-02-05T07:29:47.779Z,0.30
2018-02-05T07:32:16.196Z,0.40
2018-02-05T07:34:45.396Z,0.50
2018-02-05T07:37:14.535Z,0.60
2018-02-05T07:39:42.928Z,0.60
2018-02-05T07:42:11.310Z,0.70
2018-02-05T07:44:39.863Z,0.70
2018-02-05T07:47:08.435Z,0.80
2018-02-05T07:49:36.814Z,0.80
2018-02-05T07:52:05.200Z,0.90
2018-02-05T07:54:33.621Z,1.00
2018-02-05T07:57:02.340Z,1.00
2018-02-05T07:59:31.470Z,1.10
2018-02-05T08:01:59.977Z,1.00
2018-02-05T08:04:28.539Z,1.10
2018-02-05T08:06:56.899Z,1.20
2018-02-05T08:09:25.262Z,1.30
2018-02-05T08:11:53.644Z,1.30
2018-02-05T08:14:21.998Z,1.30
2018-02-05T08:16:51.507Z,1.30
2018-02-05T08:19:20.675Z,1.30
2018-02-05T08:21:49.046Z,1.30
2018-02-05T08:24:17.574Z,1.30
2018-02-05T08:26:45.935Z,1.30
2018-02-05T08:29:14.349Z,1.40
2018-02-05T08:31:42.869Z,1.40
2018-02-05T08:34:11.247Z,1.40
2018-02-05T08:36:39.592Z,1.50
2018-02-05T08:39:07.780Z,1.50
2018-02-05T08:41:36.281Z,1.50
2018-02-05T08:44:04.686Z,1.50
2018-02-05T08:46:33.814Z,1.60
2018-02-05T08:49:02.269Z,1.60
2018-02-05T08:51:31.427Z,1.70
2018-02-05T08:53:59.849Z,1.70
2018-02-05T08:56:29.618Z,1.70
2018-02-05T08:58:57.997Z,1.70
2018-02-05T09:01:26.526Z,1.70
2018-02-05T09:03:55.798Z,1.70
2018-02-05T09:06:24.173Z,1.70
2018-02-05T09:08:52.514Z,1.70
2018-02-05T09:11:20.883Z,1.70
2018-02-05T09:13:49.355Z,1.70
2018-02-05T09:16:17.720Z,1.70
2018-02-05T09:18:46.074Z,1.80
2018-02-05T09:21:15.202Z,1.80
2018-02-05T09:23:43.442Z,1.70
2018-02-05T09:26:11.822Z,1.70
2018-02-05T09:28:41.054Z,1.80
2018-02-05T09:31:10.524Z,1.80
2018-02-05T09:33:38.967Z,1.80
2018-02-05T09:36:07.481Z,1.90
2018-02-05T09:38:36.473Z,1.90
2018-02-05T09:41:05.869Z,2.00
2018-02-05T09:43:34.462Z,1.90
2018-02-05T09:46:03.573Z,2.00
2018-02-05T09:48:31.921Z,2.00
2018-02-05T09:51:01.227Z,2.10
2018-02-05T09:53:29.580Z,2.10
2018-02-05T09:55:58.043Z,2.10
2018-02-05T09:58:26.759Z,2.20
2018-02-05T10:00:55.111Z,2.20
2018-02-05T10:03:23.457Z,2.30
2018-02-05T10:05:51.921Z,2.40
2018-02-05T10:08:21.043Z,2.40
2018-02-05T10:10:49.392Z,2.40
2018-02-05T10:13:18.519Z,2.50
2018-02-05T10:15:46.900Z,2.50
2018-02-05T10:18:15.243Z,2.50
2018-02-05T10:20:44.367Z,2.60
2018-02-05T10:23:12.741Z,2.50
2018-02-05T10:25:41.131Z,2.60
2018-02-05T10:28:09.503Z,2.60
2018-02-05T10:30:38.043Z,2.70
2018-02-05T10:33:07.450Z,2.80
2018-02-05T10:35:37.231Z,2.80
2018-02-05T10:38:05.600Z,2.80
2018-02-05T10:40:33.974Z,2.90
2018-02-05T10:43:02.350Z,2.90
2018-02-05T10:45:30.878Z,3.00
2018-02-05T10:47:59.997Z,3.00
2018-02-05T10:50:28.382Z,3.00
2018-02-05T10:52:56.732Z,3.10
2018-02-05T10:55:25.863Z,3.30
2018-02-05T10:57:54.197Z,3.20
2018-02-05T11:00:23.341Z,3.40
2018-02-05T11:02:51.691Z,3.40
2018-02-05T11:05:20.156Z,3.40
2018-02-05T11:07:49.493Z,3.50
2018-02-05T11:10:18.646Z,3.50
2018-02-05T11:12:47.854Z,3.60
2018-02-05T11:15:16.301Z,3.60
2018-02-05T11:17:44.782Z,3.70
2018-02-05T11:20:13.155Z,3.80
2018-02-05T11:22:42.183Z,3.90
2018-02-05T11:25:11.201Z,3.90
2018-02-05T11:27:40.674Z,4.00
2018-02-05T11:30:10.575Z,4.10
2018-02-05T11:32:39.108Z,4.10
2018-02-05T11:35:07.488Z,4.10
2018-02-05T11:37:35.529Z,4.20
2018-02-05T11:40:04.793Z,4.30
2018-02-05T11:42:33.156Z,4.30
2018-02-05T11:45:01.613Z,4.30
2018-02-05T11:47:29.984Z,4.40
2018-02-05T11:49:58.561Z,4.40
2018-02-05T11:52:26.972Z,4.50
2018-02-05T11:54:55.425Z,4.50
2018-02-05T11:57:24.016Z,4.50
2018-02-05T11:59:52.554Z,4.60
2018-02-05T12:02:21.690Z,4.70
2018-02-05T12:04:50.077Z,4.60
2018-02-05T12:07:18.589Z,4.70
2018-02-05T12:09:47.161Z,4.80
2018-02-05T12:12:15.531Z,4.80
2018-02-05T12:14:43.959Z,4.80
2018-02-05T12:17:13.071Z,4.90
2018-02-05T12:19:41.536Z,4.90
2018-02-05T12:22:10.024Z,4.90
2018-02-05T12:24:38.492Z,5.00
2018-02-05T12:27:07.601Z,5.10
2018-02-05T12:29:36.013Z,5.10
2018-02-05T12:32:04.416Z,5.20
2018-02-05T12:34:33.295Z,5.20
2018-02-05T12:37:01.790Z,5.20
2018-02-05T12:39:30.360Z,5.20
2018-02-05T12:41:58.786Z,5.30
2018-02-05T12:44:27.147Z,5.30
2018-02-05T12:46:56.280Z,5.30
2018-02-05T12:49:24.802Z,5.30
2018-02-05T12:51:53.822Z,5.30
2018-02-05T12:54:22.974Z,5.40
2018-02-05T12:56:51.174Z,5.40
2018-02-05T12:59:19.344Z,5.50
2018-02-05T13:02:02.521Z,5.50
2018-02-05T13:04:51.601Z,5.50
2018-02-05T13:07:20.134Z,5.40
2018-02-05T13:09:49.466Z,5.40
2018-02-05T13:12:17.843Z,5.40
2018-02-05T13:14:46.276Z,5.40
2018-02-05T13:17:15.586Z,5.30
2018-02-05T13:19:44.107Z,5.30
2018-02-05T13:22:12.494Z,5.20
2018-02-05T13:24:40.887Z,5.20
2018-02-05T13:27:09.292Z,5.20
2018-02-05T13:29:37.720Z,5.20
2018-02-05T13:32:06.102Z,5.20
2018-02-05T13:34:34.687Z,5.20
2018-02-05T13:37:03.057Z,5.10
2018-02-05T13:39:31.418Z,5.10
2018-02-05T13:41:59.835Z,5.10
2018-02-05T13:44:28.296Z,5.10
2018-02-05T13:46:56.683Z,5.10
2018-02-05T13:49:25.183Z,5.10
2018-02-05T13:51:53.543Z,5.00
2018-02-05T13:54:21.917Z,5.00
2018-02-05T13:56:50.320Z,5.00
2018-02-05T13:59:18.719Z,5.00
2018-02-05T14:01:47.150Z,5.00
2018-02-05T14:04:15.539Z,5.00
2018-02-05T14:06:43.908Z,5.00
2018-02-05T14:09:12.254Z,4.90
2018-02-05T14:11:41.135Z,4.90
2018-02-05T14:14:10.298Z,4.90
2018-02-05T14:16:39.582Z,4.90
2018-02-05T14:19:13.749Z,4.90
2018-02-05T14:21:42.141Z,5.00
2018-02-05T14:24:10.541Z,5.00
2018-02-05T14:26:38.901Z,4.90
2018-02-05T14:29:07.249Z,4.90
2018-02-05T14:31:36.232Z,4.90
2018-02-05T14:34:04.730Z,4.90
2018-02-05T14:36:33.117Z,4.90
2018-02-05T14:39:01.485Z,4.90
2018-02-05T14:41:30.787Z,4.90
2018-02-05T14:43:59.381Z,4.90
2018-02-05T14:46:27.839Z,4.90
2018-02-05T14:48:56.602Z,4.90
2018-02-05T14:51:24.966Z,4.90
2018-02-05T14:53:53.368Z,4.80
2018-02-05T14:56:21.735Z,4.80
2018-02-05T14:58:50.109Z,4.80
2018-02-05T15:01:18.491Z,4.80
2018-02-05T15:03:46.919Z,4.80
2018-02-05T15:06:15.438Z,4.90
2018-02-05T15:08:43.789Z,4.90
2018-02-05T15:11:12.765Z,4.90
2018-02-05T15:13:41.146Z,5.00
2018-02-05T15:16:09.518Z,5.00
2018-02-05T15:18:37.894Z,5.00
2018-02-05T15:21:07.059Z,4.80
2018-02-05T15:23:35.424Z,4.70
2018-02-05T15:26:03.977Z,4.80
2018-02-05T15:28:32.461Z,4.70
2018-02-05T15:31:00.886Z,4.80
2018-02-05T15:33:31.426Z,4.80
2018-02-05T15:36:00.354Z,4.70
2018-02-05T15:38:28.750Z,4.70
2018-02-05T15:40:56.770Z,4.60
2018-02-05T15:43:25.913Z,4.50
2018-02-05T15:45:54.378Z,4.40
2018-02-05T15:48:22.771Z,4.50
2018-02-05T15:50:51.157Z,4.30
2018-02-05T15:53:20.545Z,4.30
2018-02-05T15:55:48.911Z,4.30
2018-02-05T15:58:17.266Z,4.20
2018-02-05T16:00:46.395Z,4.20
2018-02-05T16:03:14.811Z,4.20
2018-02-05T16:05:43.154Z,4.10
2018-02-05T16:08:11.530Z,4.10
2018-02-05T16:10:39.870Z,4.00
2018-02-05T16:13:08.266Z,3.90
2018-02-05T16:15:36.761Z,3.90
2018-02-05T16:18:05.111Z,3.80
2018-02-05T16:20:34.235Z,3.60
2018-02-05T16:23:02.588Z,3.60
2018-02-05T16:25:31.014Z,3.60
2018-02-05T16:27:59.157Z,3.50
2018-02-05T16:30:27.724Z,3.50
2018-02-05T16:32:56.836Z,3.30
2018-02-05T16:35:25.219Z,3.30
2018-02-05T16:37:53.577Z,3.20
2018-02-05T16:40:23.128Z,3.20
2018-02-05T16:42:51.479Z,3.20
2018-02-05T16:45:20.080Z,3.20
2018-02-05T16:47:48.447Z,3.10
2018-02-05T16:50:17.174Z,3.10
2018-02-05T16:52:46.340Z,3.10
2018-02-05T16:55:14.815Z,3.10
2018-02-05T16:57:43.015Z,3.10
2018-02-05T17:00:11.369Z,3.10
2018-02-05T17:02:39.959Z,3.10
2018-02-05T17:05:08.418Z,3.00
2018-02-05T17:07:37.217Z,3.00
2018-02-05T17:10:05.584Z,2.90
2018-02-05T17:12:33.933Z,2.90
2018-02-05T17:15:02.309Z,2.90
2018-02-05T17:17:31.498Z,2.90
2018-02-05T17:20:00.630Z,2.90
2018-02-05T17:22:29.224Z,2.90
2018-02-05T17:24:57.598Z,2.80
2018-02-05T17:27:26.231Z,2.80
2018-02-05T17:29:54.581Z,2.70
2018-02-05T17:32:22.972Z,2.70
2018-02-05T17:34:51.361Z,2.70
2018-02-05T17:37:20.669Z,2.60
2018-02-05T17:39:49.803Z,2.60
2018-02-05T17:42:18.467Z,2.60
2018-02-05T17:44:47.615Z,2.50
2018-02-05T17:47:16.557Z,2.40
2018-02-05T17:49:44.925Z,2.40
2018-02-05T17:52:14.064Z,2.50
2018-02-05T17:54:42.466Z,2.50
2018-02-05T17:57:10.911Z,2.40
2018-02-05T17:59:39.294Z,2.40
2018-02-05T18:02:07.661Z,2.40
2018-02-05T18:04:36.010Z,2.40
2018-02-05T18:07:05.647Z,2.40
2018-02-05T18:09:34.078Z,2.40
2018-02-05T18:12:02.240Z,2.40
2018-02-05T18:14:30.674Z,2.40
2018-02-05T18:16:59.036Z,2.40
2018-02-05T18:19:28.215Z,2.30
2018-02-05T18:21:57.324Z,2.40
2018-02-05T18:24:26.489Z,2.30
2018-02-05T18:26:54.926Z,2.30
2018-02-05T18:29:23.265Z,2.30
2018-02-05T18:31:52.409Z,2.30
2018-02-05T18:34:20.793Z,2.30
2018-02-05T18:36:49.365Z,2.30
2018-02-05T18:39:17.751Z,2.30
2018-02-05T18:41:46.140Z,2.30
2018-02-05T18:44:14.538Z,2.30
2018-02-05T18:46:42.983Z,2.20
2018-02-05T18:49:11.360Z,2.30
2018-02-05T18:51:39.535Z,2.20
2018-02-05T18:54:07.874Z,2.20
2018-02-05T18:56:43.561Z,2.10
2018-02-05T18:59:11.769Z,2.10
2018-02-05T19:01:40.136Z,2.10
2018-02-05T19:04:08.741Z,2.10
2018-02-05T19:06:37.276Z,2.10
2018-02-05T19:09:04.995Z,2.00
2018-02-05T19:11:34.133Z,2.00
2018-02-05T19:14:02.525Z,2.00
2018-02-05T19:16:31.740Z,1.90
2018-02-05T19:19:00.138Z,1.90
2018-02-05T19:21:28.657Z,1.80
2018-02-05T19:23:57.007Z,1.80
2018-02-05T19:26:26.214Z,1.90
2018-02-05T19:28:55.146Z,1.80
2018-02-05T19:31:23.659Z,1.80
2018-02-05T19:33:52.016Z,1.80
2018-02-05T19:36:20.594Z,1.80
2018-02-05T19:38:49.042Z,1.70
2018-02-05T19:41:17.520Z,1.80
2018-02-05T19:43:45.885Z,1.80
2018-02-05T19:46:14.416Z,1.80
2018-02-05T19:48:43.115Z,1.80
2018-02-05T19:51:11.477Z,1.80
2018-02-05T19:53:39.965Z,1.80
2018-02-05T19:56:08.520Z,1.80
2018-02-05T19:58:36.977Z,1.70
2018-02-05T20:01:05.531Z,1.70
2018-02-05T20:03:34.680Z,1.80
2018-02-05T20:06:03.045Z,1.80
2018-02-05T20:08:31.434Z,1.80
2018-02-05T20:10:59.889Z,1.80
2018-02-05T20:13:29.057Z,1.80
2018-02-05T20:15:57.432Z,1.80
2018-02-05T20:18:25.904Z,1.70
2018-02-05T20:20:54.407Z,1.80
2018-02-05T20:23:23.660Z,1.70
2018-02-05T20:25:52.040Z,1.70
2018-02-05T20:28:20.425Z,1.70
2018-02-05T20:30:48.800Z,1.70
2018-02-05T20:33:17.175Z,1.70
2018-02-05T20:35:45.543Z,1.70
2018-02-05T20:38:13.982Z,1.70
2018-02-05T20:40:43.124Z,1.50
2018-02-05T20:43:11.540Z,1.50
2018-02-05T20:45:40.086Z,1.60
2018-02-05T20:48:08.658Z,1.50
2018-02-05T20:50:37.253Z,1.50
2018-02-05T20:53:05.650Z,1.60
2018-02-05T20:55:34.010Z,1.50
2018-02-05T20:58:02.383Z,1.50
2018-02-05T21:00:30.657Z,1.50
2018-02-05T21:02:59.161Z,1.40
2018-02-05T21:05:27.602Z,1.40
2018-02-05T21:07:55.995Z,1.40
2018-02-05T21:10:24.961Z,1.40
2018-02-05T21:12:53.359Z,1.40
2018-02-05T21:15:21.913Z,1.40
2018-02-05T21:17:51.078Z,1.30
2018-02-05T21:20:19.538Z,1.30
2018-02-05T21:22:47.896Z,1.30
2018-02-05T21:25:16.251Z,1.40
2018-02-05T21:27:44.617Z,1.30
2018-02-05T21:30:13.021Z,1.30
2018-02-05T21:32:41.436Z,1.30
2018-02-05T21:35:09.816Z,1.20
2018-02-05T21:37:38.163Z,1.20
2018-02-05T21:40:06.738Z,1.20
2018-02-05T21:42:35.070Z,1.30
2018-02-05T21:45:04.624Z,1.30
2018-02-05T21:47:32.978Z,1.30
2018-02-05T21:50:01.424Z,1.20
2018-02-05T21:52:29.791Z,1.20
2018-02-05T21:54:58.154Z,1.20
2018-02-05T21:57:26.529Z,1.20
2018-02-05T21:59:54.940Z,1.20
2018-02-05T22:02:23.288Z,1.20
2018-02-05T22:04:51.666Z,1.20
2018-02-05T22:07:20.037Z,1.20
2018-02-05T22:09:48.606Z,1.20
2018-02-05T22:12:17.103Z,1.20
2018-02-05T22:14:45.491Z,1.20
2018-02-05T22:17:13.860Z,1.10
2018-02-05T22:19:42.218Z,1.20
2018-02-05T22:22:10.594Z,1.10
2018-02-05T22:24:39.854Z,1.10
2018-02-05T22:27:09.023Z,1.10
2018-02-05T22:29:37.485Z,1.10
2018-02-05T22:32:06.274Z,1.10
2018-02-05T22:34:34.785Z,1.10
2018-02-05T22:37:03.276Z,1.10
2018-02-05T22:39:37.566Z,1.00
2018-02-05T22:42:05.921Z,1.00
2018-02-05T22:44:34.444Z,1.00
2018-02-05T22:47:02.991Z,1.00
2018-02-05T22:49:32.072Z,1.00
2018-02-05T22:52:00.538Z,1.00
2018-02-05T22:54:28.939Z,1.00
2018-02-05T22:56:57.387Z,1.00
2018-02-05T22:59:26.529Z,0.90
2018-02-05T23:01:55.193Z,0.90
2018-02-05T23:04:23.637Z,0.90
2018-02-05T23:06:52.207Z,0.90
2018-02-05T23:09:20.692Z,0.90
2018-02-05T23:11:49.963Z,0.90
2018-02-05T23:14:18.557Z,0.80
2018-02-05T23:16:47.736Z,0.90
2018-02-05T23:19:16.142Z,0.90
2018-02-05T23:21:45.573Z,0.90
2018-02-05T23:24:14.118Z,0.80
2018-02-05T23:26:42.476Z,0.90
2018-02-05T23:29:11.060Z,0.80
2018-02-05T23:31:40.144Z,0.80
2018-02-05T23:34:08.491Z,0.70
2018-02-05T23:36:40.740Z,0.70
2018-02-05T23:39:09.328Z,0.70
2018-02-05T23:41:38.061Z,0.80
2018-02-05T23:44:06.657Z,0.70
2018-02-05T23:46:35.036Z,0.70
2018-02-05T23:49:03.410Z,0.70
2018-02-05T23:51:31.799Z,0.70
2018-02-05T23:54:00.159Z,0.70
2018-02-05T23:56:28.532Z,0.70
2018-02-05T23:58:57.083Z,0.70
